sim
Sign-in with your pilot id or email,
or register
Callsign
Passwort

Schedule Details

Flight Number: OEC4444
Departure: Cologne Bonn Airport (EDDK) at 12:00
Arrival: Munich Airport (EDDM) at Time

Weather Information
Getting current METAR information for EDDK 281250Z 17006KT 130V190 9999 SCT034 15/08 Q1010 NOSIG
Getting current METAR information for EDDM 281250Z 29003KT 260V320 9999 -RA FEW025 BKN040 10/07 Q1012 NOSIG

Schedule Frequency

Route Map